logo
Search for airport 
image banner adimage banner adimage banner ad
image banner ad

DAUG - Ghardaia / Noumerat-Moufdi Zakaria

Located in Ghardaia, Algeria

ICAO - DAUG, IATA - GHA

Data provided by Airmate  

General information

Coordinates: N32°22'54" E3°47'58"
Elevation is 1512 feet MSL.
Magnetic variation is 2° East
Rated:
View ratings:
[VIEW]
View others Airports in Ghardaïa Province

Operational data

Special qualification required
Current time UTC:
Current local time:
Weather
METAR: DAUG 171600Z 17011KT 120V220 CAVOK 41/05 Q1013
TAF: TAF DAUG 171100Z 1712/1812 10010KT CAVOK PROB30 TEMPO 1713/1720 FEW033CB BECMG 1720/1722 VRB02KT BECMG 1808/1812 16015KT PROB40 TEMPO 1808/1812 16015G25KT 3000 DRSA
View NOTAMs / SUP AIP / TFR affecting this airport [VIEW]
Communications frequencies: [VIEW]

Runways:

RWY identifierQFULength (ft)Width (ft)SurfaceLDA (ft)
18183°7874148ASP
367874148ASP
12122°10171197ASP
30302°10171197ASP

Airport contact information

Address: Ghardaia Algeria

Satellite view of DAUG